Time;durP1;ratioP1;P1;durP2;ratioP2;P2;SDS_P1;SDS_P2;PMS_P1;PMS_P2;Temp;Humidity;BMP_temperature;BMP_pressure;BME280_temperature;BME280_humidity;BME280_pressure;Samples;Min_cycle;Max_cycle;Signal;HPM_P1;HPM_P2
2021/12/15 00:01:05;;;;;;;95.63;31.27;;;9.70;99.90;;;;;;5030088;28;20029;-68
2021/12/15 00:03:31;;;;;;;101.68;32.15;;;9.80;99.90;;;;;;5030945;28;20033;-69
2021/12/15 00:05:57;;;;;;;97.57;32.95;;;9.70;99.90;;;;;;5015735;28;20041;-66
2021/12/15 00:08:23;;;;;;;100.38;31.17;;;9.70;99.90;;;;;;5030733;28;20372;-66
2021/12/15 00:10:49;;;;;;;92.55;31.75;;;9.70;99.90;;;;;;5030597;28;20033;-66
2021/12/15 00:13:16;;;;;;;94.97;30.58;;;9.80;99.90;;;;;;5030276;28;20040;-67
2021/12/15 00:15:43;;;;;;;94.07;30.92;;;9.80;99.90;;;;;;5021180;28;20041;-65
2021/12/15 00:18:09;;;;;;;89.40;30.02;;;9.80;99.90;;;;;;5031215;28;20080;-66
2021/12/15 00:20:35;;;;;;;87.78;30.30;;;9.80;99.90;;;;;;5015090;28;20452;-66
2021/12/15 00:23:02;;;;;;;91.65;30.63;;;9.80;99.90;;;;;;5029741;28;20053;-66
2021/12/15 00:25:31;;;;;;;86.78;30.67;;;9.70;99.90;;;;;;5011314;28;20080;-66
2021/12/15 00:27:57;;;;;;;90.97;30.70;;;9.80;99.90;;;;;;5043493;28;20045;-66
2021/12/15 00:30:22;;;;;;;88.90;30.55;;;9.80;99.90;;;;;;5028220;28;20044;-67
2021/12/15 00:32:49;;;;;;;89.97;30.35;;;9.80;99.90;;;;;;5022180;28;20128;-66
2021/12/15 00:35:15;;;;;;;77.38;29.42;;;9.80;99.90;;;;;;5031055;28;20040;-66
2021/12/15 00:37:40;;;;;;;78.70;28.98;;;9.80;99.90;;;;;;5029066;28;20103;-65
2021/12/15 00:40:10;;;;;;;85.72;29.83;;;9.80;99.90;;;;;;5025188;28;20045;-67
2021/12/15 00:42:35;;;;;;;93.63;31.45;;;9.80;99.90;;;;;;5030081;28;20124;-66
2021/12/15 00:45:02;;;;;;;81.07;29.08;;;9.80;99.90;;;;;;5029579;28;20120;-67
2021/12/15 00:47:27;;;;;;;80.88;29.65;;;9.80;99.90;;;;;;5029313;28;20040;-66
2021/12/15 00:49:53;;;;;;;76.28;29.10;;;9.80;99.90;;;;;;5029261;28;20033;-65
2021/12/15 00:52:19;;;;;;;81.70;29.25;;;9.80;99.90;;;;;;5029531;28;20398;-67
2021/12/15 00:54:45;;;;;;;88.88;31.48;;;9.80;99.90;;;;;;5030102;28;20074;-65
2021/12/15 00:57:10;;;;;;;77.90;30.17;;;9.80;99.90;;;;;;5028372;28;20060;-66
2021/12/15 00:59:36;;;;;;;75.82;28.65;;;9.80;99.90;;;;;;5027776;28;20083;-67
2021/12/15 01:02:03;;;;;;;68.47;27.30;;;9.80;99.90;;;;;;5028356;28;20059;-66
2021/12/15 01:04:30;;;;;;;79.07;27.90;;;9.80;99.90;;;;;;5028115;28;20063;-66
2021/12/15 01:06:59;;;;;;;76.53;29.02;;;9.80;99.90;;;;;;5030484;28;20041;-67
2021/12/15 01:09:32;;;;;;;78.22;28.15;;;9.80;99.90;;;;;;5030138;28;20094;-65
2021/12/15 01:12:13;;;;;;;71.70;27.15;;;9.80;99.90;;;;;;5014051;28;20075;-65
2021/12/15 01:20:08;;;;;;;78.65;27.85;;;9.90;99.90;;;;;;5048235;28;20036;-66
2021/12/15 01:22:47;;;;;;;73.75;27.75;;;9.80;99.90;;;;;;5030505;28;20496;-67
2021/12/15 01:25:18;;;;;;;75.90;28.27;;;9.80;99.90;;;;;;5022771;28;20052;-66
2021/12/15 01:27:45;;;;;;;73.70;28.00;;;9.80;99.90;;;;;;5026949;28;20033;-66
2021/12/15 01:30:15;;;;;;;67.05;26.77;;;9.80;99.90;;;;;;5030951;28;20065;-66
2021/12/15 01:32:42;;;;;;;82.00;27.95;;;9.90;99.90;;;;;;5029021;28;20448;-66
2021/12/15 01:35:08;;;;;;;79.53;29.02;;;9.90;99.90;;;;;;5032254;28;20068;-65
2021/12/15 01:37:34;;;;;;;74.15;27.70;;;9.90;99.90;;;;;;5029587;28;20044;-66
2021/12/15 01:40:00;;;;;;;73.90;26.98;;;9.90;99.90;;;;;;5027120;28;20329;-65
2021/12/15 01:42:30;;;;;;;71.97;26.20;;;9.90;99.90;;;;;;5028846;28;20041;-67
2021/12/15 01:47:40;;;;;;;70.55;26.95;;;9.90;99.90;;;;;;5048111;28;20068;-66
2021/12/15 01:50:08;;;;;;;74.32;27.17;;;9.90;99.90;;;;;;5029863;28;20372;-67
2021/12/15 01:52:36;;;;;;;72.47;26.75;;;9.90;99.90;;;;;;5018318;28;20502;-66
2021/12/15 01:55:17;;;;;;;76.68;27.38;;;9.90;99.90;;;;;;5013661;28;20107;-66
2021/12/15 01:57:45;;;;;;;76.43;26.73;;;9.90;99.90;;;;;;5031534;28;20047;-66
2021/12/15 02:00:22;;;;;;;74.25;27.27;;;9.90;99.90;;;;;;5033110;28;20128;-67
2021/12/15 02:02:49;;;;;;;64.55;26.90;;;9.90;99.90;;;;;;5041309;28;20032;-66
2021/12/15 02:05:15;;;;;;;72.72;26.83;;;9.90;99.90;;;;;;5035249;28;20155;-67
2021/12/15 02:07:43;;;;;;;73.50;27.30;;;9.90;99.90;;;;;;5033605;28;20055;-66
2021/12/15 02:10:09;;;;;;;71.88;26.00;;;9.90;99.90;;;;;;5035082;28;20041;-65
2021/12/15 02:12:38;;;;;;;69.13;26.65;;;9.90;99.90;;;;;;5032874;28;20475;-67
2021/12/15 02:15:09;;;;;;;75.38;26.35;;;9.90;99.90;;;;;;5030344;28;20050;-66
2021/12/15 02:17:35;;;;;;;70.00;26.35;;;9.90;99.90;;;;;;5012268;28;20518;-66
2021/12/15 02:20:03;;;;;;;80.75;27.33;;;9.90;99.90;;;;;;5050963;28;20507;-66
2021/12/15 02:22:29;;;;;;;74.88;27.95;;;9.90;99.90;;;;;;5014673;28;20473;-67
2021/12/15 02:24:55;;;;;;;78.15;26.92;;;9.90;99.90;;;;;;5015780;28;20040;-67
2021/12/15 02:27:21;;;;;;;76.13;26.13;;;9.90;99.90;;;;;;5032368;28;20028;-66
2021/12/15 02:29:51;;;;;;;76.45;27.10;;;9.90;99.90;;;;;;5031808;28;20040;-66
2021/12/15 02:33:38;;;;;;;78.93;28.25;;;9.90;99.90;;;;;;5033712;28;20037;-68
2021/12/15 02:37:56;;;;;;;75.13;26.88;;;9.90;99.90;;;;;;5032859;28;20138;-67
2021/12/15 02:40:23;;;;;;;81.07;29.35;;;9.90;99.90;;;;;;5030542;28;20049;-67
2021/12/15 02:42:50;;;;;;;89.78;29.92;;;9.90;99.90;;;;;;5030817;28;20045;-67
2021/12/15 02:45:19;;;;;;;71.88;27.33;;;9.90;99.90;;;;;;5031180;28;20053;-66
2021/12/15 02:47:45;;;;;;;72.72;27.33;;;10.00;99.90;;;;;;5031685;28;20035;-66
2021/12/15 02:50:22;;;;;;;78.78;27.20;;;9.90;99.90;;;;;;5034133;28;20044;-66
2021/12/15 02:52:48;;;;;;;77.93;27.73;;;10.00;99.90;;;;;;5031831;28;20345;-67
2021/12/15 02:55:14;;;;;;;85.93;28.98;;;9.90;99.90;;;;;;5029929;28;20041;-67
2021/12/15 02:57:41;;;;;;;78.35;28.17;;;10.00;99.90;;;;;;5028026;28;20315;-67
2021/12/15 03:00:22;;;;;;;79.30;28.13;;;9.90;99.90;;;;;;5032164;28;20049;-67
2021/12/15 03:05:54;;;;;;;78.07;26.70;;;9.90;99.90;;;;;;5028656;28;20045;-67
2021/12/15 03:08:24;;;;;;;78.70;28.50;;;9.90;99.90;;;;;;5025759;28;20037;-66
2021/12/15 03:16:23;;;;;;;74.07;28.20;;;9.90;99.90;;;;;;5028722;28;20045;-66
2021/12/15 03:18:49;;;;;;;74.35;27.63;;;9.90;99.90;;;;;;5013317;28;20037;-66
2021/12/15 03:21:22;;;;;;;74.30;26.98;;;9.90;99.90;;;;;;5034207;28;20612;-66
2021/12/15 03:23:54;;;;;;;75.95;26.50;;;9.90;99.90;;;;;;5032604;28;20091;-66
2021/12/15 03:26:28;;;;;;;76.57;26.73;;;9.90;99.90;;;;;;5032174;28;20041;-67
2021/12/15 03:37:26;;;;;;;75.45;29.48;;;9.90;99.90;;;;;;5031811;28;20053;-67
2021/12/15 03:39:54;;;;;;;79.47;27.55;;;9.90;99.90;;;;;;5027121;28;20156;-67
2021/12/15 03:42:27;;;;;;;78.57;27.27;;;9.90;99.90;;;;;;5016552;28;20048;-67
2021/12/15 03:44:53;;;;;;;81.95;28.58;;;9.90;99.90;;;;;;5029973;28;20049;-66
2021/12/15 03:47:30;;;;;;;83.30;29.58;;;9.90;99.90;;;;;;5025787;28;20060;-67
2021/12/15 03:49:58;;;;;;;86.00;28.63;;;9.90;99.90;;;;;;5032157;28;20051;-66
2021/12/15 03:52:25;;;;;;;78.72;27.73;;;9.90;99.90;;;;;;5032797;28;20372;-66
2021/12/15 03:54:51;;;;;;;79.43;29.27;;;9.90;99.90;;;;;;5013140;28;20449;-67
2021/12/15 03:57:18;;;;;;;88.47;29.50;;;9.90;99.90;;;;;;5021583;28;20029;-66
2021/12/15 03:59:44;;;;;;;84.07;28.83;;;10.00;99.90;;;;;;5029257;28;20037;-66
2021/12/15 04:02:12;;;;;;;84.03;29.58;;;10.00;99.90;;;;;;5048405;28;20036;-66
2021/12/15 04:04:39;;;;;;;81.05;29.25;;;9.90;99.90;;;;;;5032926;28;20060;-66
2021/12/15 04:07:07;;;;;;;82.68;28.23;;;9.90;99.90;;;;;;5029954;28;20044;-66
2021/12/15 04:09:32;;;;;;;79.32;27.80;;;9.90;99.90;;;;;;5031407;28;20053;-66
2021/12/15 04:11:59;;;;;;;76.28;28.15;;;9.90;99.90;;;;;;5030122;28;20460;-66
2021/12/15 04:14:34;;;;;;;82.90;28.50;;;10.00;99.90;;;;;;5030247;28;20060;-67
2021/12/15 04:17:06;;;;;;;86.10;30.80;;;9.90;99.90;;;;;;5028709;28;20457;-66
2021/12/15 04:19:34;;;;;;;88.35;31.10;;;9.90;99.90;;;;;;5031147;28;20041;-67
2021/12/15 04:22:00;;;;;;;83.15;30.13;;;9.90;99.90;;;;;;5032296;28;20061;-67
2021/12/15 04:24:27;;;;;;;86.90;30.33;;;9.90;99.90;;;;;;5023540;28;20564;-67
2021/12/15 04:26:56;;;;;;;76.80;29.42;;;9.90;99.90;;;;;;5012109;28;20077;-67
2021/12/15 04:29:22;;;;;;;82.13;30.88;;;9.90;99.90;;;;;;5028273;28;20140;-66
2021/12/15 04:31:56;;;;;;;85.88;30.98;;;9.90;99.90;;;;;;5030636;28;20502;-67
2021/12/15 04:34:22;;;;;;;86.70;29.77;;;10.00;99.90;;;;;;5030635;28;20037;-65
2021/12/15 04:36:49;;;;;;;84.18;30.17;;;10.00;99.90;;;;;;5030975;28;20047;-66
2021/12/15 04:39:19;;;;;;;86.05;30.50;;;10.00;99.90;;;;;;5014279;28;20064;-66
2021/12/15 04:41:48;;;;;;;82.90;31.98;;;9.90;99.90;;;;;;5031423;28;20090;-66
2021/12/15 04:44:17;;;;;;;82.55;30.13;;;10.00;99.90;;;;;;5047936;28;20075;-67
2021/12/15 04:46:50;;;;;;;83.45;32.22;;;10.00;99.90;;;;;;5028695;28;20182;-68
2021/12/15 04:49:18;;;;;;;84.45;30.27;;;10.00;99.90;;;;;;5030661;28;20440;-67
2021/12/15 04:51:44;;;;;;;88.43;30.42;;;9.90;99.90;;;;;;5026383;28;20041;-67
2021/12/15 04:54:10;;;;;;;92.20;32.83;;;9.90;99.90;;;;;;5025984;28;20059;-67
2021/12/15 04:56:36;;;;;;;82.57;31.83;;;9.90;99.90;;;;;;5024959;28;20060;-66
2021/12/15 04:59:03;;;;;;;87.45;32.78;;;10.00;99.90;;;;;;5029083;28;20053;-66
2021/12/15 05:01:29;;;;;;;88.28;33.08;;;9.90;99.90;;;;;;5030325;28;20049;-66
2021/12/15 05:03:55;;;;;;;90.82;32.72;;;9.90;99.90;;;;;;5030421;28;20045;-65
2021/12/15 05:06:22;;;;;;;92.30;32.28;;;9.90;99.90;;;;;;5029638;28;20036;-66
2021/12/15 05:08:49;;;;;;;80.43;31.85;;;9.90;99.90;;;;;;5031032;28;20412;-67
2021/12/15 05:11:14;;;;;;;95.65;32.58;;;9.90;99.90;;;;;;5014595;28;20455;-67
2021/12/15 05:13:40;;;;;;;84.60;32.55;;;9.90;99.90;;;;;;5029080;28;20060;-67
2021/12/15 05:16:06;;;;;;;84.85;31.77;;;9.90;99.90;;;;;;5028367;28;20044;-68
2021/12/15 05:18:33;;;;;;;86.47;34.15;;;9.90;99.90;;;;;;5029888;28;20056;-67
2021/12/15 05:20:59;;;;;;;92.15;32.83;;;9.90;99.90;;;;;;5030025;28;20041;-67
2021/12/15 05:23:30;;;;;;;92.18;32.42;;;9.90;99.90;;;;;;5030555;28;20466;-67
2021/12/15 05:25:56;;;;;;;90.20;33.20;;;9.90;99.90;;;;;;5029339;28;20161;-66
2021/12/15 05:28:21;;;;;;;83.50;32.60;;;9.90;99.90;;;;;;5024200;28;20032;-67
2021/12/15 05:30:47;;;;;;;86.70;32.17;;;9.90;99.90;;;;;;5031560;28;20025;-66
2021/12/15 05:33:13;;;;;;;88.93;34.13;;;9.90;99.90;;;;;;5020953;28;20037;-66
2021/12/15 05:35:38;;;;;;;97.47;34.10;;;9.90;99.90;;;;;;5037690;28;20032;-66
2021/12/15 05:38:06;;;;;;;89.93;32.47;;;9.90;99.90;;;;;;5035806;28;20091;-66
2021/12/15 05:40:32;;;;;;;86.05;32.25;;;9.90;99.90;;;;;;5033897;28;20510;-66
2021/12/15 05:42:59;;;;;;;90.43;32.70;;;9.90;99.90;;;;;;5033380;28;20059;-65
2021/12/15 05:45:27;;;;;;;89.20;33.00;;;9.90;99.90;;;;;;5032717;28;20056;-66
2021/12/15 05:47:53;;;;;;;91.85;33.70;;;9.90;99.90;;;;;;5035556;28;20327;-65
2021/12/15 05:50:20;;;;;;;87.95;33.88;;;9.90;99.90;;;;;;5036663;28;20041;-67
2021/12/15 05:52:46;;;;;;;90.60;33.75;;;9.90;99.90;;;;;;5037079;28;20036;-65
2021/12/15 05:55:13;;;;;;;88.03;34.33;;;9.90;99.90;;;;;;5035704;28;20433;-66
2021/12/15 05:57:39;;;;;;;81.63;33.67;;;10.00;99.90;;;;;;5031679;28;20045;-65
2021/12/15 06:00:11;;;;;;;84.25;33.45;;;9.90;99.90;;;;;;5017858;28;20177;-67
2021/12/15 06:02:37;;;;;;;93.88;34.60;;;10.00;99.90;;;;;;5020910;28;20045;-66
2021/12/15 06:05:03;;;;;;;94.13;34.45;;;9.90;99.90;;;;;;5037408;28;20053;-67
2021/12/15 06:07:28;;;;;;;90.50;34.95;;;9.90;99.90;;;;;;5035266;28;20047;-67
2021/12/15 06:09:54;;;;;;;87.00;32.83;;;9.90;99.90;;;;;;5032495;28;20029;-66
2021/12/15 06:12:19;;;;;;;93.10;34.08;;;9.90;99.90;;;;;;5035608;28;20094;-66
2021/12/15 06:14:45;;;;;;;86.25;32.78;;;9.90;99.90;;;;;;5018799;28;20044;-66
2021/12/15 06:17:12;;;;;;;83.00;32.80;;;9.90;99.90;;;;;;5034641;28;20041;-65
2021/12/15 06:19:39;;;;;;;85.78;33.15;;;10.00;99.90;;;;;;5035622;28;20074;-65
2021/12/15 06:22:06;;;;;;;85.90;32.60;;;9.90;99.90;;;;;;5035800;28;20118;-67
2021/12/15 06:24:33;;;;;;;96.10;34.08;;;9.90;99.90;;;;;;5036551;28;20444;-66
2021/12/15 06:27:05;;;;;;;82.95;32.78;;;9.90;99.90;;;;;;5033362;28;20106;-67
2021/12/15 06:29:31;;;;;;;88.10;33.15;;;9.90;99.90;;;;;;5016285;28;20119;-67
2021/12/15 06:31:57;;;;;;;89.32;33.92;;;10.00;99.90;;;;;;5053787;28;20069;-67
2021/12/15 06:34:23;;;;;;;88.25;33.83;;;9.90;99.90;;;;;;5041766;28;20072;-66
2021/12/15 06:36:48;;;;;;;92.05;34.80;;;9.90;99.90;;;;;;5017069;28;20426;-67
2021/12/15 06:39:15;;;;;;;91.20;34.38;;;9.90;99.90;;;;;;5018381;28;20078;-66
2021/12/15 06:41:41;;;;;;;81.78;32.28;;;9.90;99.90;;;;;;5036963;28;20045;-65
2021/12/15 06:44:07;;;;;;;84.35;33.03;;;9.90;99.90;;;;;;5028936;28;20051;-67
2021/12/15 07:00:09;;;;;;;90.43;32.85;;;9.90;99.90;;;;;;5032490;28;20049;-66
2021/12/15 07:02:35;;;;;;;86.35;34.67;;;9.90;99.90;;;;;;5028178;28;20124;-68
2021/12/15 07:05:00;;;;;;;78.28;32.45;;;9.90;99.90;;;;;;5032036;28;20132;-66
2021/12/15 07:07:26;;;;;;;86.10;34.03;;;9.90;99.90;;;;;;5026800;28;20033;-65
2021/12/15 07:09:52;;;;;;;87.07;33.00;;;9.90;99.90;;;;;;5033601;28;20044;-66
2021/12/15 07:12:17;;;;;;;83.60;34.22;;;9.90;99.90;;;;;;5033839;28;20076;-67
2021/12/15 07:14:43;;;;;;;83.28;32.65;;;9.90;99.90;;;;;;5032213;28;20117;-67
2021/12/15 07:17:15;;;;;;;82.43;32.30;;;9.90;99.90;;;;;;5027568;28;20443;-66
2021/12/15 07:24:53;;;;;;;82.68;33.55;;;10.00;99.90;;;;;;5031995;28;20063;-65
2021/12/15 07:27:19;;;;;;;84.25;32.25;;;9.90;99.90;;;;;;5032837;28;20116;-67
2021/12/15 07:29:44;;;;;;;80.57;31.85;;;9.90;99.90;;;;;;5032275;28;20090;-66
2021/12/15 07:32:10;;;;;;;84.47;32.50;;;9.90;99.90;;;;;;5017097;28;20540;-66
2021/12/15 07:34:35;;;;;;;79.22;31.85;;;9.90;99.90;;;;;;5034288;28;20445;-67
2021/12/15 07:37:01;;;;;;;80.68;31.70;;;9.90;99.90;;;;;;5034311;28;20682;-67
2021/12/15 07:39:27;;;;;;;75.43;31.25;;;9.90;99.90;;;;;;5033425;28;20457;-67
2021/12/15 07:42:03;;;;;;;81.05;31.73;;;9.90;99.90;;;;;;5028088;28;20056;-67
2021/12/15 07:44:28;;;;;;;79.30;30.30;;;9.90;99.90;;;;;;5012763;28;20114;-66
2021/12/15 07:46:54;;;;;;;77.07;31.15;;;10.00;99.90;;;;;;5030215;28;20053;-66
2021/12/15 07:49:22;;;;;;;76.30;30.58;;;10.00;99.90;;;;;;5032471;28;20033;-67
2021/12/15 07:51:48;;;;;;;78.30;30.77;;;9.90;99.90;;;;;;5031936;28;20029;-66
2021/12/15 07:54:16;;;;;;;71.97;30.30;;;9.90;99.90;;;;;;5015311;28;20118;-66
2021/12/15 07:56:42;;;;;;;76.88;29.08;;;10.00;99.90;;;;;;5014967;28;20040;-67
2021/12/15 07:59:08;;;;;;;65.38;27.88;;;10.00;99.90;;;;;;5029976;28;20041;-66
2021/12/15 08:01:34;;;;;;;70.72;28.02;;;10.00;99.90;;;;;;5032534;28;20036;-67
2021/12/15 08:03:59;;;;;;;71.57;29.05;;;10.00;99.90;;;;;;5016627;28;20330;-67
2021/12/15 08:06:27;;;;;;;67.75;28.58;;;10.00;99.90;;;;;;5028032;28;20041;-67
2021/12/15 08:08:54;;;;;;;71.15;27.25;;;10.00;99.90;;;;;;5028452;28;20041;-67
2021/12/15 08:11:20;;;;;;;66.30;27.33;;;10.00;99.90;;;;;;5031084;28;20044;-67
2021/12/15 08:13:46;;;;;;;65.18;27.92;;;10.00;99.90;;;;;;5028997;28;20049;-66
2021/12/15 08:16:14;;;;;;;74.25;27.63;;;10.00;99.90;;;;;;5030862;28;20045;-66
2021/12/15 08:18:41;;;;;;;63.45;26.63;;;10.00;99.90;;;;;;5033138;28;20041;-66
2021/12/15 08:21:07;;;;;;;58.90;25.35;;;10.00;99.90;;;;;;5033367;28;20032;-66
2021/12/15 08:23:32;;;;;;;65.35;26.92;;;10.00;99.90;;;;;;5015598;28;20041;-67
2021/12/15 08:25:59;;;;;;;55.70;25.50;;;10.00;99.90;;;;;;5032309;28;20078;-66
2021/12/15 08:28:25;;;;;;;63.55;26.30;;;10.00;99.90;;;;;;5025844;28;20043;-68
2021/12/15 08:30:51;;;;;;;61.92;25.98;;;10.00;99.90;;;;;;5029861;28;20053;-66
2021/12/15 08:33:19;;;;;;;58.35;25.35;;;10.10;99.90;;;;;;5033634;28;20128;-66
2021/12/15 08:35:49;;;;;;;61.13;24.30;;;10.10;99.90;;;;;;5033295;28;20091;-66
2021/12/15 08:38:16;;;;;;;59.42;25.08;;;10.10;99.90;;;;;;5016342;28;20079;-67
2021/12/15 08:40:44;;;;;;;66.50;25.17;;;10.10;99.90;;;;;;5032529;28;20041;-65
2021/12/15 08:43:12;;;;;;;61.15;25.75;;;10.10;99.90;;;;;;5030395;28;20052;-67
2021/12/15 08:45:40;;;;;;;58.25;26.38;;;10.10;99.90;;;;;;5030856;28;20065;-67
2021/12/15 08:48:08;;;;;;;59.05;25.88;;;10.10;99.90;;;;;;5032714;28;20131;-67
2021/12/15 08:50:36;;;;;;;60.55;26.33;;;10.10;99.90;;;;;;5030203;28;20488;-66
2021/12/15 08:53:04;;;;;;;58.72;25.70;;;10.10;99.90;;;;;;5021811;28;20120;-67
2021/12/15 08:55:29;;;;;;;65.95;25.08;;;10.10;99.90;;;;;;5011881;28;20122;-67
2021/12/15 08:57:58;;;;;;;57.33;25.17;;;10.10;99.90;;;;;;5027549;28;20134;-66
2021/12/15 09:00:25;;;;;;;60.03;26.13;;;10.10;99.90;;;;;;5028743;28;20051;-66
2021/12/15 09:02:52;;;;;;;58.22;23.52;;;10.20;99.90;;;;;;5028689;28;20588;-67
2021/12/15 09:05:20;;;;;;;60.38;25.20;;;10.20;99.90;;;;;;5027344;28;20401;-68
2021/12/15 09:07:52;;;;;;;54.30;23.73;;;10.20;99.90;;;;;;5030619;28;20111;-68
2021/12/15 09:10:19;;;;;;;54.92;24.20;;;10.20;99.90;;;;;;5029946;28;20405;-68
2021/12/15 09:12:45;;;;;;;55.03;23.75;;;10.20;99.90;;;;;;5029569;28;20130;-67
2021/12/15 09:15:11;;;;;;;58.53;24.55;;;10.10;99.90;;;;;;5029795;28;20041;-67
2021/12/15 09:17:36;;;;;;;55.85;25.02;;;10.20;99.90;;;;;;5011609;28;20106;-66
2021/12/15 09:20:06;;;;;;;58.83;24.13;;;10.20;99.90;;;;;;5029697;28;20460;-67
2021/12/15 09:22:31;;;;;;;57.80;25.48;;;10.20;99.90;;;;;;5030390;28;20110;-68
2021/12/15 09:24:57;;;;;;;55.67;24.35;;;10.20;99.90;;;;;;5030313;28;20048;-66
2021/12/15 09:27:22;;;;;;;60.70;24.15;;;10.20;99.90;;;;;;5030739;28;20477;-67
2021/12/15 09:29:48;;;;;;;54.53;24.48;;;10.20;99.90;;;;;;5028616;28;20036;-68
2021/12/15 09:32:14;;;;;;;59.28;24.65;;;10.20;99.90;;;;;;5030003;28;20051;-68
2021/12/15 09:34:40;;;;;;;54.10;24.65;;;10.30;99.90;;;;;;5031984;28;20476;-67
2021/12/15 09:37:06;;;;;;;53.83;24.15;;;10.20;99.90;;;;;;5030435;28;20039;-68
2021/12/15 09:39:32;;;;;;;56.30;23.63;;;10.30;99.90;;;;;;5030410;28;20048;-67
2021/12/15 09:41:59;;;;;;;51.33;24.02;;;10.30;99.90;;;;;;5030116;28;20491;-66
2021/12/15 09:44:27;;;;;;;54.80;24.25;;;10.30;99.90;;;;;;5029751;28;20136;-68
2021/12/15 10:03:36;;;;;;;46.90;21.65;;;10.20;99.90;;;;;;5017411;28;20109;-67
2021/12/15 10:19:43;;;;;;;46.22;20.50;;;10.50;99.90;;;;;;5034813;28;20052;-66
2021/12/15 10:22:32;;;;;;;48.67;21.77;;;10.50;99.90;;;;;;5032561;28;20158;-67
2021/12/15 10:25:12;;;;;;;45.15;19.23;;;10.50;99.90;;;;;;5034299;28;20512;-68
2021/12/15 10:27:52;;;;;;;;;;;10.50;99.90;;;;;;5018285;28;20041;-68
2021/12/15 10:30:26;;;;;;;38.67;18.10;;;10.60;99.90;;;;;;5029594;28;19952;-68
2021/12/15 10:33:02;;;;;;;38.72;18.27;;;10.60;99.90;;;;;;5017262;28;20044;-68
2021/12/15 10:35:33;;;;;;;41.67;19.45;;;10.70;99.90;;;;;;5034136;28;20041;-68
2021/12/15 10:38:20;;;;;;;39.58;18.45;;;10.70;99.90;;;;;;5017707;28;20130;-67
2021/12/15 10:40:47;;;;;;;41.15;19.13;;;10.70;99.90;;;;;;5032507;28;20052;-68
2021/12/15 10:43:13;;;;;;;39.20;18.50;;;10.70;99.90;;;;;;5032447;28;20036;-68
2021/12/15 10:45:45;;;;;;;42.08;18.42;;;10.70;99.90;;;;;;5028466;28;20503;-68
2021/12/15 10:48:23;;;;;;;36.33;18.52;;;10.70;99.90;;;;;;5033999;28;20091;-68
2021/12/15 10:50:48;;;;;;;39.15;18.33;;;10.70;99.90;;;;;;5032940;28;20072;-66
2021/12/15 10:53:27;;;;;;;37.33;17.67;;;10.80;99.90;;;;;;5017087;28;20116;-67
2021/12/15 10:55:53;;;;;;;36.08;16.73;;;10.80;99.90;;;;;;5033374;28;20179;-65
2021/12/15 10:58:42;;;;;;;34.85;16.98;;;10.80;99.90;;;;;;5050555;28;20123;-67
2021/12/15 11:01:45;;;;;;;35.33;16.70;;;10.80;99.90;;;;;;5009560;28;20093;-67
2021/12/15 11:04:25;;;;;;;38.28;16.55;;;10.80;99.90;;;;;;5033628;28;20488;-68
2021/12/15 11:07:19;;;;;;;36.90;18.13;;;10.90;99.90;;;;;;5013763;28;20033;-67
2021/12/15 11:09:50;;;;;;;33.25;16.25;;;10.90;99.90;;;;;;5033996;28;20068;-67
2021/12/15 11:12:24;;;;;;;34.70;16.05;;;10.90;99.90;;;;;;5029080;28;20406;-67
2021/12/15 11:14:54;;;;;;;36.45;16.08;;;10.90;99.90;;;;;;5014192;28;20099;-68
2021/12/15 11:17:24;;;;;;;33.70;18.00;;;10.90;99.90;;;;;;5029919;28;20124;-68
2021/12/15 11:19:52;;;;;;;31.13;15.80;;;11.00;99.90;;;;;;5034000;28;20142;-67
2021/12/15 11:22:30;;;;;;;35.25;15.98;;;11.00;99.90;;;;;;5031473;28;20430;-68
2021/12/15 11:24:56;;;;;;;34.47;17.45;;;11.00;99.90;;;;;;5028320;28;20056;-67
2021/12/15 11:27:22;;;;;;;29.48;14.77;;;11.00;99.90;;;;;;5033079;28;20449;-68
2021/12/15 11:29:48;;;;;;;30.13;14.57;;;10.90;99.90;;;;;;5031407;28;20064;-68
2021/12/15 11:32:47;;;;;;;34.95;14.65;;;10.90;99.90;;;;;;5029402;28;20037;-69
2021/12/15 11:35:30;;;;;;;31.85;13.82;;;10.80;99.90;;;;;;5034642;28;20511;-68
2021/12/15 11:38:00;;;;;;;28.95;13.82;;;10.90;99.90;;;;;;5033283;28;20515;-67
2021/12/15 11:40:39;;;;;;;;;;;10.90;99.90;;;;;;5033913;28;20380;-68
2021/12/15 11:43:05;;;;;;;24.73;13.15;;;10.90;99.90;;;;;;5032304;28;20351;-67
2021/12/15 11:45:32;;;;;;;30.50;13.20;;;10.90;99.90;;;;;;5032096;28;20045;-70
2021/12/15 11:48:22;;;;;;;26.67;13.63;;;10.90;99.90;;;;;;5032497;28;20041;-66
2021/12/15 11:50:50;;;;;;;29.05;13.43;;;10.90;99.90;;;;;;5014662;28;20046;-68
2021/12/15 11:53:33;;;;;;;27.10;13.93;;;11.00;99.90;;;;;;5031332;28;20032;-68
2021/12/15 11:56:25;;;;;;;26.63;12.82;;;11.00;99.90;;;;;;5025994;28;20051;-67
2021/12/15 11:58:55;;;;;;;31.55;14.68;;;11.00;99.90;;;;;;5024797;28;20048;-68
2021/12/15 12:01:42;;;;;;;27.38;13.68;;;11.00;99.90;;;;;;5012543;28;20070;-68
2021/12/15 12:04:11;;;;;;;25.00;12.80;;;11.00;99.90;;;;;;5024293;28;20059;-68
2021/12/15 12:06:36;;;;;;;22.67;10.90;;;11.00;99.90;;;;;;5031724;28;20124;-68
2021/12/15 12:09:02;;;;;;;26.05;12.27;;;11.10;99.90;;;;;;5013578;28;20124;-69
2021/12/15 12:11:29;;;;;;;24.70;11.80;;;11.10;99.90;;;;;;5016746;28;20075;-66
2021/12/15 12:13:59;;;;;;;19.55;9.90;;;11.10;99.90;;;;;;5031041;28;20041;-67
2021/12/15 12:16:25;;;;;;;20.77;10.25;;;11.10;99.90;;;;;;5031934;28;20057;-67
2021/12/15 12:18:52;;;;;;;24.55;10.35;;;11.10;99.90;;;;;;5033490;28;20040;-67
2021/12/15 12:21:18;;;;;;;19.23;10.43;;;11.10;99.90;;;;;;5033381;28;20488;-68
2021/12/15 12:23:46;;;;;;;21.55;10.60;;;11.00;99.90;;;;;;5029575;28;20052;-67
2021/12/15 12:26:12;;;;;;;21.77;10.57;;;11.00;99.90;;;;;;5032498;28;20102;-68
2021/12/15 12:28:41;;;;;;;20.00;9.90;;;11.00;99.90;;;;;;5031117;28;20040;-67
2021/12/15 12:31:20;;;;;;;20.20;10.40;;;11.00;99.90;;;;;;5031574;28;20041;-67
2021/12/15 12:33:46;;;;;;;20.42;10.43;;;11.00;99.90;;;;;;5033392;28;20032;-68
2021/12/15 12:36:15;;;;;;;27.15;12.23;;;11.00;99.90;;;;;;5033555;28;20083;-68
2021/12/15 12:38:48;;;;;;;25.02;12.82;;;11.00;99.90;;;;;;5016156;28;20049;-67
2021/12/15 12:41:19;;;;;;;27.00;13.00;;;11.00;99.90;;;;;;5031954;28;20056;-68
2021/12/15 12:43:51;;;;;;;23.77;11.43;;;11.00;99.90;;;;;;5031086;28;20048;-67
2021/12/15 12:46:28;;;;;;;24.65;12.20;;;11.00;99.90;;;;;;5030946;28;20555;-67
2021/12/15 13:00:26;;;;;;;19.98;10.70;;;11.10;99.90;;;;;;5031678;28;20059;-67
2021/12/15 13:03:08;;;;;;;21.05;9.80;;;11.00;99.90;;;;;;5032181;28;20432;-67
2021/12/15 13:05:37;;;;;;;18.27;10.05;;;11.00;99.90;;;;;;5031874;28;20041;-67
2021/12/15 13:08:41;;;;;;;20.50;10.27;;;11.00;99.90;;;;;;5020514;28;20068;-68
2021/12/15 13:11:16;;;;;;;19.30;8.73;;;11.00;99.90;;;;;;5012603;28;20096;-68
2021/12/15 13:14:05;;;;;;;21.90;9.38;;;10.90;99.90;;;;;;5029146;28;20048;-70
2021/12/15 13:16:50;;;;;;;21.05;9.13;;;10.90;99.90;;;;;;5030605;28;20052;-68
2021/12/15 13:19:18;;;;;;;17.38;8.13;;;10.90;99.90;;;;;;5031831;28;20044;-66
2021/12/15 13:31:07;;;;;;;16.08;5.97;;;10.80;99.90;;;;;;5000486;28;20068;-69
2021/12/15 13:33:34;;;;;;;12.48;5.85;;;10.80;99.90;;;;;;5032583;28;20051;-68
2021/12/15 13:36:09;;;;;;;13.68;5.95;;;10.70;99.90;;;;;;5032720;28;20040;-68
2021/12/15 13:38:44;;;;;;;11.10;4.85;;;10.70;99.90;;;;;;5031555;28;20642;-69
2021/12/15 13:42:00;;;;;;;7.75;4.30;;;10.60;99.90;;;;;;5032414;28;20056;-68
2021/12/15 13:44:30;;;;;;;8.30;4.45;;;10.60;99.90;;;;;;5026256;28;20056;-68
2021/12/15 13:47:00;;;;;;;11.50;4.20;;;10.40;99.90;;;;;;5014206;28;20125;-68
2021/12/15 13:49:41;;;;;;;8.82;4.47;;;10.30;99.90;;;;;;5032575;28;20246;-68
2021/12/15 13:52:16;;;;;;;9.38;3.92;;;10.20;99.90;;;;;;5033186;28;20560;-68
2021/12/15 13:54:41;;;;;;;8.43;4.20;;;10.20;99.90;;;;;;5019715;28;20124;-68
2021/12/15 13:57:13;;;;;;;9.45;4.47;;;10.10;99.90;;;;;;5034133;28;20127;-69
2021/12/15 13:59:46;;;;;;;10.00;4.38;;;10.20;99.90;;;;;;5034717;28;20392;-68
2021/12/15 14:02:16;;;;;;;8.70;4.32;;;10.20;99.90;;;;;;5035296;28;20075;-69
2021/12/15 14:04:51;;;;;;;;;;;10.10;99.90;;;;;;5036893;28;20251;-68
2021/12/15 14:07:39;;;;;;;10.27;4.97;;;10.10;99.90;;;;;;5035513;28;19958;-68
2021/12/15 14:10:10;;;;;;;10.88;4.35;;;10.00;99.90;;;;;;5035253;28;20044;-68
2021/12/15 14:12:45;;;;;;;10.93;5.13;;;9.90;99.90;;;;;;5018008;28;20098;-68
2021/12/15 14:15:36;;;;;;;11.10;5.38;;;9.80;99.90;;;;;;5034584;28;20175;-68
2021/12/15 14:18:02;;;;;;;10.43;5.55;;;9.70;99.90;;;;;;5035910;28;20516;-68
2021/12/15 14:20:30;;;;;;;14.50;5.68;;;9.60;99.90;;;;;;5052536;28;20051;-68
2021/12/15 14:22:58;;;;;;;12.20;5.18;;;9.50;99.90;;;;;;5034744;28;20761;-68